Time;durP1;ratioP1;P1;durP2;ratioP2;P2;SDS_P1;SDS_P2;PMS_P1;PMS_P2;Temp;Humidity;BMP_temperature;BMP_pressure;BME280_temperature;BME280_humidity;BME280_pressure;Samples;Min_cycle;Max_cycle;Signal;HPM_P1;HPM_P2
2024/03/11 00:02:05;;;;;;;9.10;3.00;;;;;;;-10.77;67.07;139672.61;106643;1271;25347;-62
2024/03/11 00:04:51;;;;;;;7.20;2.90;;;;;;;-10.79;67.20;139668.17;106659;1269;25371;-65
2024/03/11 00:07:37;;;;;;;6.50;2.90;;;;;;;-10.80;67.04;139666.45;106680;1271;25352;-63
2024/03/11 00:10:23;;;;;;;5.80;2.80;;;;;;;-10.80;67.09;139666.20;106695;1280;25361;-62
2024/03/11 00:13:10;;;;;;;7.00;3.20;;;;;;;-10.79;67.05;139668.67;106659;1271;25419;-64
2024/03/11 00:15:56;;;;;;;6.30;3.10;;;;;;;-10.80;67.06;139666.22;106625;1268;25369;-64
2024/03/11 00:18:42;;;;;;;5.30;3.00;;;;;;;-10.82;67.31;139660.08;106665;1271;25345;-67
2024/03/11 00:21:29;;;;;;;10.50;4.30;;;;;;;-10.84;67.67;139655.16;106634;1268;25353;-65
2024/03/11 00:24:15;;;;;;;7.90;3.20;;;;;;;-10.87;67.85;139646.80;106610;1269;25360;-66
2024/03/11 00:27:02;;;;;;;7.00;2.90;;;;;;;-10.91;68.18;139638.16;106676;1271;25494;-64
2024/03/11 00:29:50;;;;;;;7.40;3.00;;;;;;;-10.94;68.32;139630.53;106632;1278;25359;-65
2024/03/11 00:32:44;;;;;;;7.30;2.90;;;;;;;-10.96;68.44;139627.84;106644;1279;25351;-65
2024/03/11 00:35:31;;;;;;;5.10;2.40;;;;;;;-10.95;68.68;139628.58;106654;1269;25373;-63
2024/03/11 00:38:16;;;;;;;9.80;3.90;;;;;;;-10.99;69.16;139619.23;106588;1270;25327;-61
2024/03/11 00:41:02;;;;;;;7.80;2.40;;;;;;;-11.01;69.22;139614.80;106554;1269;25496;-63
2024/03/11 00:43:48;;;;;;;7.60;3.90;;;;;;;-11.01;69.48;139614.80;106575;1271;25338;-66
2024/03/11 00:46:35;;;;;;;6.10;3.10;;;;;;;-11.01;69.88;139614.09;106465;1272;25407;-67
2024/03/11 00:49:21;;;;;;;7.30;3.10;;;;;;;-11.00;69.65;139616.53;106511;1271;25339;-63
2024/03/11 00:52:07;;;;;;;7.10;3.10;;;;;;;-11.02;70.07;139613.34;106595;1278;25353;-62
2024/03/11 00:54:52;;;;;;;5.80;2.90;;;;;;;-11.02;70.29;139612.34;106583;1268;25417;-63
2024/03/11 00:57:39;;;;;;;7.80;3.80;;;;;;;-11.02;70.88;139611.36;106689;1268;25356;-64
2024/03/11 01:00:26;;;;;;;9.70;3.00;;;;;;;-11.03;70.77;139610.38;106653;1277;25494;-66
2024/03/11 01:03:13;;;;;;;10.20;3.30;;;;;;;-11.04;71.43;139606.41;106639;1279;25432;-65
2024/03/11 01:05:59;;;;;;;8.40;3.50;;;;;;;-11.06;71.68;139601.03;106662;1272;25349;-65
2024/03/11 01:08:46;;;;;;;9.10;4.30;;;;;;;-11.11;71.94;139589.72;106637;1272;25451;-63
2024/03/11 01:11:31;;;;;;;6.70;3.30;;;;;;;-11.15;72.64;139580.84;106659;1268;25373;-63
2024/03/11 01:14:17;;;;;;;10.30;3.00;;;;;;;-11.18;73.40;139573.23;106648;1271;25466;-63
2024/03/11 01:17:04;;;;;;;7.20;3.60;;;;;;;-11.20;73.85;139569.80;106646;1271;25376;-63
2024/03/11 01:19:50;;;;;;;8.80;3.90;;;;;;;-11.21;74.16;139568.08;106627;1270;25362;-62
2024/03/11 01:22:35;;;;;;;10.30;3.60;;;;;;;-11.20;74.41;139570.30;106640;1271;25350;-65
2024/03/11 01:25:21;;;;;;;9.60;3.70;;;;;;;-11.20;74.74;139569.80;106625;1268;25526;-64
2024/03/11 01:28:10;;;;;;;14.10;3.60;;;;;;;-11.17;74.78;139576.92;106629;1269;25533;-66
2024/03/11 01:30:56;;;;;;;8.50;3.50;;;;;;;-11.14;74.67;139583.58;106648;1271;25370;-63
2024/03/11 01:33:43;;;;;;;7.10;3.30;;;;;;;-11.13;74.83;139584.55;106628;1270;25348;-65
2024/03/11 01:36:34;;;;;;;8.90;3.60;;;;;;;-11.16;75.07;139579.39;106625;1277;25352;-64
2024/03/11 01:39:42;;;;;;;8.20;3.30;;;;;;;-11.18;75.04;139574.22;106638;1279;25335;-63
2024/03/11 01:42:25;;;;;;;13.70;3.80;;;;;;;-11.19;75.64;139571.28;106630;1270;25440;-64
2024/03/11 01:45:12;;;;;;;9.30;4.10;;;;;;;-11.22;76.16;139564.63;106623;1279;25529;-63
2024/03/11 01:47:58;;;;;;;12.20;4.60;;;;;;;-11.23;76.34;139562.41;106605;1272;25365;-64
2024/03/11 01:50:44;;;;;;;7.70;3.40;;;;;;;-11.23;76.54;139561.91;106617;1274;25522;-65
2024/03/11 01:53:31;;;;;;;9.30;3.20;;;;;;;-11.21;76.84;139566.61;106620;1268;25640;-65
2024/03/11 01:56:18;;;;;;;10.30;3.50;;;;;;;-11.20;76.84;139568.56;106659;1269;25420;-62
2024/03/11 01:59:07;;;;;;;13.20;4.00;;;;;;;-11.23;77.24;139563.17;106628;1279;25334;-65
2024/03/11 02:01:54;;;;;;;9.50;3.90;;;;;;;-11.26;77.57;139555.03;106637;1270;25413;-64
2024/03/11 02:04:45;;;;;;;9.90;4.40;;;;;;;-11.27;77.82;139552.08;106666;1272;25383;-66
2024/03/11 02:07:31;;;;;;;14.70;4.20;;;;;;;-11.30;78.30;139545.69;106623;1278;25331;-66
2024/03/11 02:10:19;;;;;;;13.20;4.50;;;;;;;-11.31;78.74;139543.47;106589;1269;25341;-66
2024/03/11 02:13:06;;;;;;;16.00;4.40;;;;;;;-11.30;78.83;139543.97;106637;1265;25425;-63
2024/03/11 02:15:52;;;;;;;15.10;4.00;;;;;;;-11.30;79.21;139544.94;106593;1273;25457;-64
2024/03/11 02:18:39;;;;;;;8.10;3.80;;;;;;;-11.31;79.46;139542.27;106653;1280;25498;-63
2024/03/11 02:21:25;;;;;;;13.90;4.20;;;;;;;-11.32;79.56;139540.53;106642;1272;25497;-64
2024/03/11 02:24:12;;;;;;;8.70;3.70;;;;;;;-11.31;79.48;139542.98;106645;1269;25428;-66
2024/03/11 02:26:58;;;;;;;9.30;4.60;;;;;;;-11.31;79.53;139542.75;106642;1274;25559;-67
2024/03/11 02:29:44;;;;;;;9.50;4.30;;;;;;;-11.32;79.47;139539.53;106656;1268;25360;-62
2024/03/11 02:32:30;;;;;;;10.50;4.20;;;;;;;-11.34;79.58;139534.64;106693;1272;25336;-65
2024/03/11 02:35:16;;;;;;;7.40;3.70;;;;;;;-11.37;80.10;139528.47;106681;1272;25408;-65
2024/03/11 02:38:01;;;;;;;8.40;3.50;;;;;;;-11.40;81.02;139520.84;106652;1268;25334;-63
2024/03/11 02:40:47;;;;;;;10.70;4.50;;;;;;;-11.41;81.53;139519.63;106665;1279;25418;-64
2024/03/11 02:43:33;;;;;;;9.80;4.10;;;;;;;-11.41;82.06;139518.89;106655;1279;25353;-64
2024/03/11 02:46:19;;;;;;;12.20;4.00;;;;;;;-11.39;82.35;139523.06;106671;1269;25348;-62
2024/03/11 02:49:04;;;;;;;9.20;4.20;;;;;;;-11.39;82.89;139523.06;106669;1273;25353;-68
2024/03/11 02:51:50;;;;;;;14.60;5.40;;;;;;;-11.41;83.64;139519.63;106620;1278;25369;-66
2024/03/11 02:54:37;;;;;;;12.80;4.10;;;;;;;-11.42;84.01;139515.45;106654;1265;25422;-64
2024/03/11 02:57:23;;;;;;;10.40;5.50;;;;;;;-11.46;85.00;139506.84;106659;1277;25607;-67
2024/03/11 03:00:10;;;;;;;13.10;5.00;;;;;;;-11.48;85.77;139501.44;106628;1279;25450;-66
2024/03/11 03:02:56;;;;;;;17.40;5.00;;;;;;;-11.51;86.58;139495.03;106703;1272;25387;-64
2024/03/11 03:05:42;;;;;;;8.60;3.90;;;;;;;-11.54;87.53;139486.17;106662;1274;25479;-67
2024/03/11 03:08:27;;;;;;;11.20;4.30;;;;;;;-11.56;88.85;139481.75;106667;1269;25341;-63
2024/03/11 03:11:13;;;;;;;16.70;5.20;;;;;;;-11.54;89.37;139486.66;106666;1271;25383;-64
2024/03/11 03:13:59;;;;;;;9.00;4.60;;;;;;;-11.52;89.67;139491.33;106634;1275;25465;-60
2024/03/11 03:16:45;;;;;;;12.00;5.60;;;;;;;-11.52;90.41;139492.08;106640;1275;25488;-67
2024/03/11 03:19:31;;;;;;;11.80;5.50;;;;;;;-11.52;90.48;139491.34;106636;1269;25373;-64
2024/03/11 03:22:17;;;;;;;11.80;4.90;;;;;;;-11.56;91.39;139481.78;106651;1277;25358;-62
2024/03/11 03:25:03;;;;;;;11.10;5.20;;;;;;;-11.56;91.70;139482.25;106674;1276;25373;-65
2024/03/11 03:27:49;;;;;;;9.70;4.80;;;;;;;-11.55;92.19;139483.25;106660;1279;25345;-63
2024/03/11 03:30:35;;;;;;;12.60;4.80;;;;;;;-11.57;92.83;139480.03;106662;1270;25377;-66
2024/03/11 03:33:21;;;;;;;15.70;6.70;;;;;;;-11.59;93.38;139476.83;106674;1271;25373;-63
2024/03/11 03:36:08;;;;;;;11.50;5.00;;;;;;;-11.59;93.47;139476.09;106653;1278;25338;-66
2024/03/11 03:38:54;;;;;;;10.20;5.00;;;;;;;-11.58;93.55;139477.33;106653;1277;25413;-66
2024/03/11 03:41:39;;;;;;;11.20;5.20;;;;;;;-11.57;93.54;139480.03;106649;1278;25345;-64
2024/03/11 03:44:25;;;;;;;12.90;5.10;;;;;;;-11.60;93.69;139473.89;106661;1278;25716;-63
2024/03/11 03:47:11;;;;;;;10.40;4.70;;;;;;;-11.61;93.76;139470.70;106665;1271;24215;-61
2024/03/11 03:49:57;;;;;;;12.20;5.40;;;;;;;-11.62;93.68;139469.72;106656;1279;25348;-62
2024/03/11 03:52:46;;;;;;;10.30;5.50;;;;;;;-11.62;93.63;139468.48;106684;1279;25356;-63
2024/03/11 03:55:32;;;;;;;10.60;5.10;;;;;;;-11.65;94.07;139462.34;106644;1279;25428;-63
2024/03/11 03:58:19;;;;;;;13.30;5.00;;;;;;;-11.65;94.27;139461.34;106686;1270;25450;-63
2024/03/11 04:01:05;;;;;;;17.60;6.10;;;;;;;-11.62;94.50;139469.22;106656;1268;25503;-66
2024/03/11 04:03:51;;;;;;;14.40;6.20;;;;;;;-11.60;94.43;139473.16;106658;1279;25360;-61
2024/03/11 04:06:36;;;;;;;15.20;6.10;;;;;;;-11.60;94.71;139472.91;106661;1279;25535;-65
2024/03/11 04:09:22;;;;;;;11.90;6.10;;;;;;;-11.60;94.73;139472.41;106666;1279;25386;-66
2024/03/11 04:12:08;;;;;;;15.20;6.40;;;;;;;-11.60;94.70;139474.63;106664;1273;25501;-67
2024/03/11 04:14:53;;;;;;;17.20;7.00;;;;;;;-11.59;94.90;139475.11;106661;1271;25404;-64
2024/03/11 04:17:40;;;;;;;14.40;7.10;;;;;;;-11.59;94.77;139476.34;106668;1275;25376;-62
2024/03/11 04:20:31;;;;;;;15.50;7.60;;;;;;;-11.62;94.76;139468.97;106654;1279;25352;-61
2024/03/11 04:23:17;;;;;;;15.90;7.70;;;;;;;-11.63;94.98;139465.78;106666;1279;25419;-64
2024/03/11 04:26:03;;;;;;;17.80;7.30;;;;;;;-11.62;94.95;139469.23;106677;1272;25324;-61
2024/03/11 04:28:49;;;;;;;18.40;7.90;;;;;;;-11.60;94.75;139474.16;106703;1274;25325;-64
2024/03/11 04:31:34;;;;;;;16.00;7.50;;;;;;;-11.58;94.76;139478.05;106682;1279;25454;-66
2024/03/11 04:34:20;;;;;;;17.90;7.70;;;;;;;-11.57;94.80;139480.03;106652;1279;25456;-62
2024/03/11 04:37:07;;;;;;;13.80;7.10;;;;;;;-11.59;95.09;139475.38;106661;1270;25498;-65
2024/03/11 04:39:52;;;;;;;18.10;8.10;;;;;;;-11.56;95.23;139482.02;106691;1279;25358;-65
2024/03/11 04:42:38;;;;;;;15.00;7.10;;;;;;;-11.51;95.21;139492.56;106661;1279;25429;-64
2024/03/11 04:45:28;;;;;;;16.10;7.10;;;;;;;-11.49;94.90;139499.72;106645;1277;25335;-64
2024/03/11 04:48:13;;;;;;;21.20;8.10;;;;;;;-11.46;94.74;139506.83;106632;1275;25425;-64
2024/03/11 04:51:02;;;;;;;16.00;8.50;;;;;;;-11.41;94.70;139518.63;106632;1278;25404;-62
2024/03/11 04:53:48;;;;;;;17.20;8.80;;;;;;;-11.35;94.05;139533.39;106641;1274;25427;-63
2024/03/11 04:56:34;;;;;;;16.10;8.80;;;;;;;-10.74;92.09;139680.50;106635;1267;25491;-67
2024/03/11 04:59:20;;;;;;;16.60;8.50;;;;;;;-9.43;85.26;139996.11;106640;1270;25495;-65
2024/03/11 05:02:07;;;;;;;16.20;8.70;;;;;;;-8.39;77.20;140244.83;106652;1279;25348;-66
2024/03/11 05:04:53;;;;;;;15.30;8.30;;;;;;;-7.63;70.69;140427.59;106618;1270;25498;-67
2024/03/11 05:07:39;;;;;;;17.40;8.30;;;;;;;-6.97;67.38;140586.84;106685;1280;25424;-61
2024/03/11 05:10:26;;;;;;;12.20;7.10;;;;;;;-6.35;63.53;140737.55;106651;1275;25335;-65
2024/03/11 05:13:11;;;;;;;12.70;6.20;;;;;;;-5.74;59.67;140883.34;106651;1279;25412;-66
2024/03/11 05:15:57;;;;;;;14.40;6.60;;;;;;;-5.26;56.98;141001.05;106663;1279;25365;-62
2024/03/11 05:18:43;;;;;;;11.30;6.50;;;;;;;-5.19;55.05;141018.16;106626;1279;25508;-64
2024/03/11 05:21:29;;;;;;;11.10;5.60;;;;;;;-4.91;53.97;141085.19;106652;1275;25495;-65
2024/03/11 05:24:15;;;;;;;10.30;5.10;;;;;;;-4.63;52.47;141154.23;106677;1279;25394;-62
2024/03/11 05:27:00;;;;;;;9.50;4.30;;;;;;;-4.87;51.88;141094.59;106577;1270;25352;-61
2024/03/11 05:29:46;;;;;;;9.40;4.60;;;;;;;-4.95;52.28;141075.05;106654;1271;25413;-66
2024/03/11 05:32:33;;;;;;;10.70;4.40;;;;;;;-4.65;51.22;141148.78;106620;1274;25362;-63
2024/03/11 05:35:20;;;;;;;10.10;4.90;;;;;;;-4.68;50.40;141140.14;106644;1270;25507;-65
2024/03/11 05:38:11;;;;;;;8.30;4.00;;;;;;;-4.50;49.58;141184.69;106648;1270;25295;-66
2024/03/11 05:40:57;;;;;;;11.50;3.90;;;;;;;-4.50;48.64;141182.70;106576;1267;25407;-67
2024/03/11 05:43:42;;;;;;;10.50;3.60;;;;;;;-4.51;48.64;141182.20;106623;1280;25529;-68
2024/03/11 05:46:29;;;;;;;10.10;4.20;;;;;;;-4.20;47.92;141257.47;106482;1258;25410;-64
2024/03/11 05:49:14;;;;;;;8.80;4.60;;;;;;;-3.58;46.66;141405.59;106335;1279;25386;-69
2024/03/11 05:51:59;;;;;;;9.40;4.00;;;;;;;-3.20;45.19;141497.55;106502;1279;25410;-66
2024/03/11 05:54:50;;;;;;;9.10;3.60;;;;;;;-3.10;44.58;141522.09;106567;1270;25491;-67
2024/03/11 05:57:37;;;;;;;8.30;4.40;;;;;;;-2.52;43.65;141663.92;106613;1273;25348;-64
2024/03/11 06:00:22;;;;;;;11.50;5.10;;;;;;;-1.97;42.32;141796.38;106618;1264;25474;-65
2024/03/11 06:03:10;;;;;;;12.00;4.50;;;;;;;-1.51;41.19;141908.58;106653;1279;25494;-66
2024/03/11 06:05:56;;;;;;;10.70;4.80;;;;;;;-1.23;40.23;141977.84;106679;1267;25545;-66
2024/03/11 06:08:43;;;;;;;12.60;4.70;;;;;;;-1.49;40.03;141912.55;106673;1276;23901;-62
2024/03/11 06:11:29;;;;;;;11.60;4.70;;;;;;;-1.51;40.30;141908.83;106670;1271;25361;-67
2024/03/11 06:14:17;;;;;;;12.10;5.20;;;;;;;-0.88;39.42;142060.78;106674;1264;25432;-69
2024/03/11 06:17:06;;;;;;;10.60;4.00;;;;;;;-0.84;38.81;142069.50;106656;1279;25353;-67
2024/03/11 06:19:52;;;;;;;11.30;3.80;;;;;;;-0.79;38.59;142084.64;106664;1270;23946;-67
2024/03/11 06:22:39;;;;;;;8.60;4.20;;;;;;;-1.48;39.04;141915.03;106659;1279;25352;-69
2024/03/11 06:25:25;;;;;;;10.60;4.60;;;;;;;-1.69;39.71;141864.64;106645;1279;25324;-69
2024/03/11 06:28:10;;;;;;;11.40;4.40;;;;;;;-1.70;39.33;141862.91;106640;1275;25463;-64
2024/03/11 06:30:56;;;;;;;6.40;3.40;;;;;;;-2.22;40.24;141736.34;106641;1271;25393;-64
2024/03/11 06:33:41;;;;;;;9.30;4.40;;;;;;;-2.75;41.32;141608.09;106669;1270;25408;-65
2024/03/11 06:36:28;;;;;;;7.00;3.90;;;;;;;-2.91;41.29;141569.42;106685;1274;25359;-62
2024/03/11 06:39:15;;;;;;;8.30;4.20;;;;;;;-3.13;41.84;141515.41;106649;1270;25457;-65
2024/03/11 06:42:01;;;;;;;11.70;4.00;;;;;;;-3.20;41.78;141498.53;106641;1279;25362;-63
2024/03/11 06:44:47;;;;;;;7.30;3.90;;;;;;;-3.13;42.03;141515.89;106641;1270;25357;-67
2024/03/11 06:47:34;;;;;;;7.30;3.80;;;;;;;-2.89;41.19;141574.89;106657;1268;25419;-64
2024/03/11 06:50:20;;;;;;;7.70;4.30;;;;;;;-2.77;41.19;141602.66;106655;1270;25359;-66
2024/03/11 06:53:08;;;;;;;10.50;5.00;;;;;;;-2.31;40.63;141713.75;106644;1260;25400;-68
2024/03/11 06:55:53;;;;;;;7.60;4.00;;;;;;;-2.25;40.38;141729.91;106661;1264;25373;-65
2024/03/11 06:58:39;;;;;;;11.60;4.80;;;;;;;-2.72;40.99;141614.08;106638;1263;25366;-63
2024/03/11 07:01:29;;;;;;;9.30;4.10;;;;;;;-2.62;40.54;141639.09;106658;1277;25363;-62
2024/03/11 07:04:16;;;;;;;10.30;4.70;;;;;;;-2.70;40.57;141620.00;106655;1263;25389;-69
2024/03/11 07:07:02;;;;;;;13.90;6.00;;;;;;;-2.62;40.42;141640.34;106661;1279;25425;-63
2024/03/11 07:09:48;;;;;;;17.30;5.00;;;;;;;-2.05;39.76;141777.53;106654;1270;25337;-65
2024/03/11 07:12:34;;;;;;;8.10;3.90;;;;;;;-2.10;38.44;141765.38;106679;1277;25376;-66
2024/03/11 07:15:20;;;;;;;9.70;4.40;;;;;;;-2.23;38.82;141733.86;106655;1279;25487;-71
2024/03/11 07:18:06;;;;;;;8.30;4.40;;;;;;;-2.03;38.30;141783.23;106654;1279;25383;-69
2024/03/11 07:20:55;;;;;;;11.30;7.00;;;;;;;-2.19;38.21;141742.55;106607;1259;25338;-66
2024/03/11 07:23:41;;;;;;;11.50;4.20;;;;;;;-2.44;38.32;141683.25;106619;1279;25383;-63
2024/03/11 07:26:27;;;;;;;14.50;5.70;;;;;;;-2.23;38.35;141733.11;106649;1264;25345;-65
2024/03/11 07:29:14;;;;;;;10.50;5.20;;;;;;;-1.34;37.26;141950.78;106641;1258;25334;-68
2024/03/11 07:32:01;;;;;;;12.10;4.90;;;;;;;-0.92;36.15;142052.83;106662;1258;25427;-66
2024/03/11 07:34:50;;;;;;;10.00;4.20;;;;;;;-1.27;35.97;141966.66;106657;1264;25376;-67
2024/03/11 07:37:36;;;;;;;14.50;4.70;;;;;;;-1.35;36.36;141947.80;106626;1279;25356;-65
2024/03/11 07:40:22;;;;;;;10.00;4.80;;;;;;;-2.25;37.28;141729.14;106672;1279;25445;-66
2024/03/11 07:43:08;;;;;;;15.90;6.50;;;;;;;-2.14;37.37;141755.70;106667;1279;25429;-67
2024/03/11 07:45:54;;;;;;;18.00;6.00;;;;;;;-1.93;37.42;141805.31;106631;1279;25497;-62
2024/03/11 07:48:40;;;;;;;12.70;5.90;;;;;;;-1.36;36.64;141943.58;106661;1264;25376;-62
2024/03/11 07:51:26;;;;;;;10.20;3.90;;;;;;;-1.01;34.93;142029.97;106637;1264;25631;-64
2024/03/11 07:54:12;;;;;;;11.50;4.40;;;;;;;-1.15;35.61;141994.72;106631;1264;25366;-66
2024/03/11 07:56:57;;;;;;;14.80;6.00;;;;;;;-1.40;35.81;141934.41;106664;1262;25427;-65
2024/03/11 07:59:44;;;;;;;11.30;4.40;;;;;;;-1.49;36.18;141912.55;106649;1260;25392;-66
2024/03/11 08:02:30;;;;;;;12.50;4.40;;;;;;;-1.22;35.85;141978.34;106658;1262;25516;-64
2024/03/11 08:05:22;;;;;;;10.50;4.60;;;;;;;-0.95;35.40;142043.16;106627;1261;25384;-67
2024/03/11 08:08:08;;;;;;;12.80;4.60;;;;;;;-0.61;34.74;142126.86;106613;1264;25337;-64
2024/03/11 08:10:54;;;;;;;10.00;5.00;;;;;;;-0.10;33.97;142251.63;106656;1261;25338;-68
2024/03/11 08:13:41;;;;;;;8.90;4.70;;;;;;;-0.09;33.67;142252.36;106619;1262;25564;-63
2024/03/11 08:16:27;;;;;;;7.50;4.40;;;;;;;-0.99;34.88;142033.72;106656;1264;25415;-64
2024/03/11 08:19:13;;;;;;;10.90;5.20;;;;;;;-1.63;35.46;141880.03;106647;1264;25398;-70
2024/03/11 08:21:59;;;;;;;9.80;4.90;;;;;;;-1.69;35.93;141864.39;106662;1260;25399;-64
2024/03/11 08:24:45;;;;;;;9.10;4.50;;;;;;;-1.79;36.41;141841.30;106656;1258;25352;-67
2024/03/11 08:27:31;;;;;;;10.00;5.70;;;;;;;-1.63;36.48;141880.03;106651;1261;25323;-68
2024/03/11 08:30:18;;;;;;;11.80;5.10;;;;;;;-1.54;36.21;141902.11;106639;1264;25338;-65
2024/03/11 08:33:04;;;;;;;12.20;5.00;;;;;;;-1.89;36.06;141815.48;106651;1279;25487;-65
2024/03/11 08:35:52;;;;;;;9.40;4.90;;;;;;;-2.16;36.61;141749.50;106636;1279;25328;-69
2024/03/11 08:38:39;;;;;;;14.10;5.70;;;;;;;-2.50;37.03;141667.63;106662;1279;25422;-65
2024/03/11 08:41:26;;;;;;;11.50;4.70;;;;;;;-2.90;37.61;141570.67;106657;1257;25383;-69
2024/03/11 08:44:14;;;;;;;6.80;3.60;;;;;;;-3.55;38.32;141414.53;106643;1279;25461;-68
2024/03/11 08:47:00;;;;;;;11.60;4.50;;;;;;;-3.73;38.91;141370.91;106643;1269;25353;-64
2024/03/11 08:49:49;;;;;;;8.60;4.40;;;;;;;-3.52;38.34;141422.22;106681;1261;25355;-68
2024/03/11 08:52:36;;;;;;;10.00;4.90;;;;;;;-3.55;38.41;141413.78;106630;1260;25337;-68
2024/03/11 08:55:22;;;;;;;12.00;5.10;;;;;;;-3.47;38.83;141432.59;106687;1263;25338;-66
2024/03/11 08:58:09;;;;;;;7.70;4.30;;;;;;;-3.39;38.32;141454.17;106637;1260;25361;-63
2024/03/11 09:00:56;;;;;;;11.30;5.80;;;;;;;-3.60;38.75;141401.41;106644;1279;25351;-67
2024/03/11 09:03:43;;;;;;;10.70;4.90;;;;;;;-3.70;39.25;141378.09;106621;1262;25396;-67
2024/03/11 09:06:30;;;;;;;13.50;6.30;;;;;;;-3.78;39.83;141359.53;106671;1262;25373;-67
2024/03/11 09:09:16;;;;;;;12.80;6.50;;;;;;;-4.08;40.15;141284.97;106673;1264;25425;-64
2024/03/11 09:12:02;;;;;;;10.60;5.10;;;;;;;-4.22;40.29;141253.75;106648;1260;25419;-70
2024/03/11 09:14:48;;;;;;;9.10;4.90;;;;;;;-4.77;40.99;141119.34;106646;1262;25476;-66
2024/03/11 09:17:34;;;;;;;15.80;5.80;;;;;;;-5.13;41.93;141032.73;106652;1261;25337;-63
2024/03/11 09:20:24;;;;;;;12.10;5.70;;;;;;;-5.51;42.95;140939.72;106618;1262;25367;-62
2024/03/11 09:23:13;;;;;;;9.10;4.70;;;;;;;-5.61;43.51;140915.00;106638;1269;25348;-67
2024/03/11 09:26:01;;;;;;;12.50;5.60;;;;;;;-5.97;43.18;140829.97;106633;1262;25365;-65
2024/03/11 09:28:48;;;;;;;11.40;6.30;;;;;;;-6.41;44.03;140722.97;106646;1262;25425;-66
2024/03/11 09:31:35;;;;;;;16.70;7.10;;;;;;;-6.51;45.00;140697.53;106642;1257;25338;-66
2024/03/11 09:34:21;;;;;;;11.60;6.50;;;;;;;-6.65;46.02;140665.41;106649;1279;26520;-67
2024/03/11 09:37:08;;;;;;;16.10;7.20;;;;;;;-6.65;46.05;140664.66;106620;1262;25436;-65
2024/03/11 09:39:55;;;;;;;13.50;5.90;;;;;;;-6.52;45.67;140696.28;106553;1264;134443;-67
2024/03/11 09:42:41;;;;;;;14.40;6.10;;;;;;;-6.60;45.49;140676.52;106663;1261;25349;-64
2024/03/11 09:45:28;;;;;;;10.90;5.60;;;;;;;-6.82;46.21;140624.38;106637;1260;25362;-63
2024/03/11 09:48:17;;;;;;;16.70;7.00;;;;;;;-7.03;47.05;140572.52;106630;1279;25392;-63
2024/03/11 09:51:06;;;;;;;17.90;5.60;;;;;;;-7.00;47.12;140579.44;106643;1260;25367;-66
2024/03/11 09:53:54;;;;;;;13.80;6.00;;;;;;;-7.10;47.23;140556.22;106637;1260;25428;-63
2024/03/11 09:56:41;;;;;;;11.30;6.40;;;;;;;-7.13;47.34;140549.30;106635;1279;25376;-66
2024/03/11 09:59:30;;;;;;;16.10;6.70;;;;;;;-7.07;47.12;140564.38;106654;1279;25362;-66
2024/03/11 10:02:28;;;;;;;10.40;6.00;;;;;;;-6.96;46.92;140590.30;106646;1279;25337;-63
2024/03/11 10:05:16;;;;;;;13.50;7.10;;;;;;;-6.88;46.40;140608.34;106641;1279;25366;-65
2024/03/11 10:08:04;;;;;;;19.40;6.90;;;;;;;-6.89;46.32;140606.36;106669;1261;25399;-63
2024/03/11 10:11:20;;;;;;;12.80;6.10;;;;;;;-6.76;46.50;140637.23;106671;1259;25428;-65
2024/03/11 10:14:20;;;;;;;16.00;6.80;;;;;;;-6.74;46.32;140643.16;106633;1268;25418;-64
2024/03/11 10:17:34;;;;;;;11.80;6.00;;;;;;;-6.79;45.31;140633.03;106668;1264;25407;-65
2024/03/11 10:20:21;;;;;;;14.40;6.20;;;;;;;-6.64;45.46;140667.88;106676;1279;25410;-66
2024/03/11 10:23:08;;;;;;;15.80;6.50;;;;;;;-6.41;45.15;140724.20;106620;1260;25341;-64
2024/03/11 10:26:17;;;;;;;15.30;6.80;;;;;;;-6.39;44.97;140727.16;106675;1260;25363;-65
2024/03/11 10:29:05;;;;;;;12.60;6.00;;;;;;;-6.49;44.87;140703.69;106626;1262;25352;-67
2024/03/11 10:31:52;;;;;;;13.20;6.60;;;;;;;-6.52;45.39;140696.52;106661;1262;25412;-65
2024/03/11 10:34:54;;;;;;;16.30;6.50;;;;;;;-6.48;45.60;140705.17;106638;1262;25367;-66
2024/03/11 10:37:43;;;;;;;17.30;7.00;;;;;;;-6.51;45.72;140699.48;106629;1261;25375;-64
2024/03/11 10:40:32;;;;;;;13.50;6.60;;;;;;;-6.41;45.62;140723.95;106567;1259;25373;-66
2024/03/11 10:43:24;;;;;;;12.20;6.30;;;;;;;-6.36;45.48;140735.33;106429;1262;25387;-64
2024/03/11 10:46:22;;;;;;;12.20;6.50;;;;;;;-6.43;45.69;140717.28;106385;1261;25407;-64
2024/03/11 10:49:12;;;;;;;11.80;6.50;;;;;;;-6.42;45.98;140720.75;106433;1259;25386;-64
2024/03/11 10:52:07;;;;;;;11.60;6.10;;;;;;;-6.41;45.79;140724.20;106478;1261;25420;-65
2024/03/11 10:54:54;;;;;;;13.00;6.60;;;;;;;-6.33;45.52;140742.00;106641;1267;25409;-65
2024/03/11 10:58:03;;;;;;;11.50;6.50;;;;;;;-6.24;45.66;140762.00;106653;1261;25337;-67
2024/03/11 11:00:49;;;;;;;16.10;6.80;;;;;;;-6.29;45.49;140750.88;106677;1262;24343;-64
2024/03/11 11:03:40;;;;;;;14.20;5.70;;;;;;;-6.12;45.63;140791.42;106667;1260;25376;-67
2024/03/11 11:06:27;;;;;;;13.40;5.90;;;;;;;-5.86;45.14;140856.39;106651;1262;25537;-63
2024/03/11 11:09:15;;;;;;;11.50;6.10;;;;;;;-5.83;44.79;140862.80;106628;1259;25412;-67
2024/03/11 11:12:03;;;;;;;11.50;5.90;;;;;;;-5.86;45.00;140855.41;106649;1260;25337;-63
2024/03/11 11:14:51;;;;;;;14.20;6.00;;;;;;;-5.79;44.96;140871.47;106654;1270;25348;-62
2024/03/11 11:17:38;;;;;;;13.30;6.90;;;;;;;-5.69;44.65;140896.45;106645;1260;25345;-64
2024/03/11 11:20:34;;;;;;;14.60;6.90;;;;;;;-5.56;44.22;140928.59;106669;1260;25364;-66
2024/03/11 11:23:28;;;;;;;12.90;6.40;;;;;;;-5.41;43.81;140963.70;106627;1260;25382;-68
2024/03/11 11:26:41;;;;;;;13.50;7.20;;;;;;;-5.32;43.35;140986.47;106656;1260;25373;-64
2024/03/11 11:29:31;;;;;;;13.80;5.90;;;;;;;-5.46;42.87;140953.55;106641;1278;25349;-69
2024/03/11 11:32:18;;;;;;;13.30;6.30;;;;;;;-5.57;43.59;140926.63;106669;1259;25418;-65
2024/03/11 11:35:05;;;;;;;10.10;6.10;;;;;;;-5.52;43.33;140937.25;106643;1279;25415;-67
2024/03/11 11:37:51;;;;;;;10.70;6.10;;;;;;;-5.49;43.10;140944.91;106668;1279;25407;-67
2024/03/11 11:40:39;;;;;;;12.50;4.80;;;;;;;-5.34;42.51;140980.53;106651;1279;25348;-67
2024/03/11 11:43:44;;;;;;;11.40;5.40;;;;;;;-5.30;42.35;140991.66;106628;1279;26693;-66
2024/03/11 11:46:44;;;;;;;9.10;5.20;;;;;;;-5.40;42.13;140966.92;106639;1279;25361;-66
2024/03/11 11:49:40;;;;;;;11.20;4.50;;;;;;;-5.46;42.44;140952.33;106644;1279;25443;-69
2024/03/11 11:52:26;;;;;;;12.80;5.40;;;;;;;-5.52;42.78;140939.22;106666;1279;25498;-63
2024/03/11 11:55:15;;;;;;;10.70;5.90;;;;;;;-5.28;42.54;140994.64;106678;1279;25386;-65
2024/03/11 11:58:07;;;;;;;12.20;4.80;;;;;;;-5.18;41.72;141020.86;106669;1279;25376;-68
2024/03/11 12:01:04;;;;;;;11.10;4.90;;;;;;;-5.22;41.64;141010.22;106653;1279;25328;-65
2024/03/11 12:03:50;;;;;;;8.10;4.30;;;;;;;-5.24;41.68;141006.48;106633;1279;25414;-68
2024/03/11 12:06:37;;;;;;;10.70;5.70;;;;;;;-5.11;41.72;141036.95;106636;1279;25349;-63
2024/03/11 12:09:24;;;;;;;8.00;4.90;;;;;;;-4.79;41.71;141114.64;106641;1279;22643;-64
2024/03/11 12:12:10;;;;;;;12.50;4.90;;;;;;;-4.68;40.96;141140.64;106627;1279;25338;-65
2024/03/11 12:14:59;;;;;;;11.80;5.60;;;;;;;-4.77;40.63;141119.09;106671;1279;25402;-66
2024/03/11 12:17:54;;;;;;;11.00;5.90;;;;;;;-4.86;40.66;141098.05;106638;1279;25369;-67
2024/03/11 12:20:42;;;;;;;9.30;5.50;;;;;;;-4.81;40.40;141109.44;106665;1279;25444;-67
2024/03/11 12:23:28;;;;;;;10.60;5.50;;;;;;;-4.73;39.89;141128.50;106636;1279;25544;-66
2024/03/11 12:26:15;;;;;;;15.00;6.40;;;;;;;-4.82;39.95;141106.23;106649;1279;25349;-69
2024/03/11 12:29:07;;;;;;;13.00;5.80;;;;;;;-4.79;40.20;141114.39;106633;1279;25380;-68
2024/03/11 12:31:58;;;;;;;10.90;6.00;;;;;;;-4.69;40.12;141139.89;106668;1279;25479;-66
2024/03/11 12:34:47;;;;;;;11.50;6.50;;;;;;;-4.63;39.63;141152.75;106686;1279;25464;-66
2024/03/11 12:37:33;;;;;;;14.30;5.60;;;;;;;-4.49;39.50;141187.16;106643;1279;25349;-63
2024/03/11 12:40:23;;;;;;;11.00;5.00;;;;;;;-4.39;38.88;141210.92;106646;1279;25570;-68
2024/03/11 12:43:20;;;;;;;13.20;5.30;;;;;;;-4.34;39.16;141222.58;106669;1279;25488;-66